sensor_id;sensor_type;location;lat;lon;timestamp;P1;durP1;ratioP1;P2;durP2;ratioP2
62673;SDS011;62269;47.594;17.638;2023-03-08T00:19:55;42.53;;;24.67;;
62673;SDS011;62269;47.594;17.638;2023-03-08T00:21:03;50.55;;;33.53;;
62673;SDS011;62269;47.594;17.638;2023-03-08T00:22:00;55.45;;;34.45;;
62673;SDS011;62269;47.594;17.638;2023-03-08T00:22:47;52.15;;;33.05;;
62673;SDS011;62269;47.594;17.638;2023-03-08T00:23:37;57.42;;;35.05;;
62673;SDS011;62269;47.594;17.638;2023-03-08T00:25:11;57.45;;;34.33;;
62673;SDS011;62269;47.594;17.638;2023-03-08T00:26:02;59.28;;;35.72;;
62673;SDS011;62269;47.594;17.638;2023-03-08T00:26:49;60.08;;;36.60;;
62673;SDS011;62269;47.594;17.638;2023-03-08T00:27:36;57.03;;;35.88;;
62673;SDS011;62269;47.594;17.638;2023-03-08T00:28:23;57.47;;;37.25;;
62673;SDS011;62269;47.594;17.638;2023-03-08T00:29:11;56.45;;;36.25;;
62673;SDS011;62269;47.594;17.638;2023-03-08T00:29:58;58.75;;;35.53;;
62673;SDS011;62269;47.594;17.638;2023-03-08T00:30:45;57.30;;;36.08;;
62673;SDS011;62269;47.594;17.638;2023-03-08T00:31:40;56.65;;;36.75;;
62673;SDS011;62269;47.594;17.638;2023-03-08T00:32:27;59.30;;;37.17;;
62673;SDS011;62269;47.594;17.638;2023-03-08T00:33:15;59.40;;;37.13;;
62673;SDS011;62269;47.594;17.638;2023-03-08T00:34:02;58.13;;;36.53;;
62673;SDS011;62269;47.594;17.638;2023-03-08T00:34:49;55.70;;;35.33;;
62673;SDS011;62269;47.594;17.638;2023-03-08T00:35:36;58.30;;;35.92;;
62673;SDS011;62269;47.594;17.638;2023-03-08T00:36:23;56.70;;;36.05;;
62673;SDS011;62269;47.594;17.638;2023-03-08T00:37:10;54.97;;;36.33;;
62673;SDS011;62269;47.594;17.638;2023-03-08T00:37:58;55.75;;;35.72;;
62673;SDS011;62269;47.594;17.638;2023-03-08T00:38:45;58.87;;;37.17;;
62673;SDS011;62269;47.594;17.638;2023-03-08T00:39:33;60.88;;;37.38;;
62673;SDS011;62269;47.594;17.638;2023-03-08T00:40:20;57.53;;;34.80;;
62673;SDS011;62269;47.594;17.638;2023-03-08T00:41:07;61.85;;;36.70;;
62673;SDS011;62269;47.594;17.638;2023-03-08T00:41:54;61.53;;;36.47;;
62673;SDS011;62269;47.594;17.638;2023-03-08T00:42:41;62.30;;;35.72;;
62673;SDS011;62269;47.594;17.638;2023-03-08T00:43:28;57.40;;;36.72;;
62673;SDS011;62269;47.594;17.638;2023-03-08T00:44:15;60.30;;;36.72;;
62673;SDS011;62269;47.594;17.638;2023-03-08T00:45:02;59.17;;;36.05;;
62673;SDS011;62269;47.594;17.638;2023-03-08T00:45:49;57.38;;;35.15;;
62673;SDS011;62269;47.594;17.638;2023-03-08T00:46:38;61.08;;;35.42;;
62673;SDS011;62269;47.594;17.638;2023-03-08T00:47:25;58.53;;;35.85;;
62673;SDS011;62269;47.594;17.638;2023-03-08T00:48:12;59.47;;;34.75;;
62673;SDS011;62269;47.594;17.638;2023-03-08T00:48:59;59.78;;;36.53;;
62673;SDS011;62269;47.594;17.638;2023-03-08T00:49:46;63.03;;;36.60;;
62673;SDS011;62269;47.594;17.638;2023-03-08T00:50:33;57.62;;;35.75;;
62673;SDS011;62269;47.594;17.638;2023-03-08T00:51:23;60.67;;;36.13;;
62673;SDS011;62269;47.594;17.638;2023-03-08T00:52:11;65.82;;;36.65;;
62673;SDS011;62269;47.594;17.638;2023-03-08T00:52:58;67.43;;;36.55;;
62673;SDS011;62269;47.594;17.638;2023-03-08T00:53:46;61.60;;;36.50;;
62673;SDS011;62269;47.594;17.638;2023-03-08T00:54:33;65.93;;;38.70;;
62673;SDS011;62269;47.594;17.638;2023-03-08T00:55:23;57.13;;;35.25;;
62673;SDS011;62269;47.594;17.638;2023-03-08T00:56:10;61.53;;;35.60;;
62673;SDS011;62269;47.594;17.638;2023-03-08T00:57:00;63.70;;;36.30;;
62673;SDS011;62269;47.594;17.638;2023-03-08T00:57:46;64.72;;;36.33;;
62673;SDS011;62269;47.594;17.638;2023-03-08T00:58:35;62.88;;;37.00;;
62673;SDS011;62269;47.594;17.638;2023-03-08T00:59:22;67.72;;;36.78;;
62673;SDS011;62269;47.594;17.638;2023-03-08T01:00:09;62.47;;;37.17;;
62673;SDS011;62269;47.594;17.638;2023-03-08T01:00:58;56.80;;;37.05;;
62673;SDS011;62269;47.594;17.638;2023-03-08T01:01:45;59.20;;;36.33;;
62673;SDS011;62269;47.594;17.638;2023-03-08T01:02:32;60.58;;;36.90;;
62673;SDS011;62269;47.594;17.638;2023-03-08T01:03:20;64.78;;;36.70;;
62673;SDS011;62269;47.594;17.638;2023-03-08T01:04:07;61.70;;;35.80;;
62673;SDS011;62269;47.594;17.638;2023-03-08T01:04:55;60.03;;;34.45;;
62673;SDS011;62269;47.594;17.638;2023-03-08T01:05:43;58.00;;;34.20;;
62673;SDS011;62269;47.594;17.638;2023-03-08T01:06:31;59.30;;;36.03;;
62673;SDS011;62269;47.594;17.638;2023-03-08T01:07:18;63.65;;;36.47;;
62673;SDS011;62269;47.594;17.638;2023-03-08T01:08:08;57.60;;;35.88;;
62673;SDS011;62269;47.594;17.638;2023-03-08T01:08:55;58.15;;;34.78;;
62673;SDS011;62269;47.594;17.638;2023-03-08T01:09:42;62.42;;;36.13;;
62673;SDS011;62269;47.594;17.638;2023-03-08T01:10:29;65.93;;;38.38;;
62673;SDS011;62269;47.594;17.638;2023-03-08T01:11:20;63.80;;;37.58;;
62673;SDS011;62269;47.594;17.638;2023-03-08T01:12:09;64.97;;;36.70;;
62673;SDS011;62269;47.594;17.638;2023-03-08T01:12:56;71.53;;;37.30;;
62673;SDS011;62269;47.594;17.638;2023-03-08T01:13:43;65.80;;;37.20;;
62673;SDS011;62269;47.594;17.638;2023-03-08T01:14:30;62.03;;;36.97;;
62673;SDS011;62269;47.594;17.638;2023-03-08T01:15:17;62.58;;;36.65;;
62673;SDS011;62269;47.594;17.638;2023-03-08T01:16:04;63.70;;;36.30;;
62673;SDS011;62269;47.594;17.638;2023-03-08T01:16:51;65.65;;;37.42;;
62673;SDS011;62269;47.594;17.638;2023-03-08T01:17:38;69.05;;;38.67;;
62673;SDS011;62269;47.594;17.638;2023-03-08T01:18:25;64.37;;;37.25;;
62673;SDS011;62269;47.594;17.638;2023-03-08T01:19:12;67.50;;;37.65;;
62673;SDS011;62269;47.594;17.638;2023-03-08T01:19:59;68.40;;;38.33;;
62673;SDS011;62269;47.594;17.638;2023-03-08T01:21:02;66.45;;;38.42;;
62673;SDS011;62269;47.594;17.638;2023-03-08T01:21:50;70.80;;;39.72;;
62673;SDS011;62269;47.594;17.638;2023-03-08T01:22:37;73.40;;;39.53;;
62673;SDS011;62269;47.594;17.638;2023-03-08T01:23:24;72.00;;;41.40;;
62673;SDS011;62269;47.594;17.638;2023-03-08T01:24:11;71.87;;;40.92;;
62673;SDS011;62269;47.594;17.638;2023-03-08T01:24:58;76.37;;;40.78;;
62673;SDS011;62269;47.594;17.638;2023-03-08T01:25:45;75.35;;;41.20;;
62673;SDS011;62269;47.594;17.638;2023-03-08T01:26:32;73.50;;;39.58;;
62673;SDS011;62269;47.594;17.638;2023-03-08T01:27:19;66.53;;;39.88;;
62673;SDS011;62269;47.594;17.638;2023-03-08T01:28:06;66.60;;;38.60;;
62673;SDS011;62269;47.594;17.638;2023-03-08T01:28:54;77.12;;;41.37;;
62673;SDS011;62269;47.594;17.638;2023-03-08T01:29:41;74.32;;;41.25;;
62673;SDS011;62269;47.594;17.638;2023-03-08T01:30:29;68.95;;;38.65;;
62673;SDS011;62269;47.594;17.638;2023-03-08T01:31:23;71.25;;;39.50;;
62673;SDS011;62269;47.594;17.638;2023-03-08T01:32:11;75.28;;;41.25;;
62673;SDS011;62269;47.594;17.638;2023-03-08T01:32:59;69.15;;;39.65;;
62673;SDS011;62269;47.594;17.638;2023-03-08T01:33:46;64.28;;;38.30;;
62673;SDS011;62269;47.594;17.638;2023-03-08T01:34:37;65.90;;;38.00;;
62673;SDS011;62269;47.594;17.638;2023-03-08T01:35:24;67.62;;;37.88;;
62673;SDS011;62269;47.594;17.638;2023-03-08T01:36:12;69.07;;;38.65;;
62673;SDS011;62269;47.594;17.638;2023-03-08T01:37:00;70.00;;;38.83;;
62673;SDS011;62269;47.594;17.638;2023-03-08T01:37:51;68.03;;;40.47;;
62673;SDS011;62269;47.594;17.638;2023-03-08T01:38:41;68.68;;;38.03;;
62673;SDS011;62269;47.594;17.638;2023-03-08T01:39:28;70.00;;;38.83;;
62673;SDS011;62269;47.594;17.638;2023-03-08T01:40:15;66.45;;;37.72;;
62673;SDS011;62269;47.594;17.638;2023-03-08T01:41:02;65.47;;;35.97;;
62673;SDS011;62269;47.594;17.638;2023-03-08T01:41:51;69.22;;;39.05;;
62673;SDS011;62269;47.594;17.638;2023-03-08T01:42:38;75.00;;;40.42;;
62673;SDS011;62269;47.594;17.638;2023-03-08T01:43:27;69.68;;;38.55;;
62673;SDS011;62269;47.594;17.638;2023-03-08T01:44:16;65.30;;;38.40;;
62673;SDS011;62269;47.594;17.638;2023-03-08T01:45:04;70.12;;;38.80;;
62673;SDS011;62269;47.594;17.638;2023-03-08T01:46:51;73.28;;;39.60;;
62673;SDS011;62269;47.594;17.638;2023-03-08T01:47:38;68.55;;;39.63;;
62673;SDS011;62269;47.594;17.638;2023-03-08T01:48:27;71.78;;;38.38;;
62673;SDS011;62269;47.594;17.638;2023-03-08T01:50:14;67.85;;;37.80;;
62673;SDS011;62269;47.594;17.638;2023-03-08T01:51:01;70.78;;;40.53;;
62673;SDS011;62269;47.594;17.638;2023-03-08T01:52:44;65.97;;;38.38;;
62673;SDS011;62269;47.594;17.638;2023-03-08T01:53:36;69.07;;;38.13;;
62673;SDS011;62269;47.594;17.638;2023-03-08T01:54:25;66.80;;;38.63;;
62673;SDS011;62269;47.594;17.638;2023-03-08T01:56:01;63.38;;;35.80;;
62673;SDS011;62269;47.594;17.638;2023-03-08T01:56:49;69.57;;;36.88;;
62673;SDS011;62269;47.594;17.638;2023-03-08T01:57:41;70.32;;;38.35;;
62673;SDS011;62269;47.594;17.638;2023-03-08T01:58:31;71.95;;;38.67;;
62673;SDS011;62269;47.594;17.638;2023-03-08T01:59:18;69.25;;;38.72;;
62673;SDS011;62269;47.594;17.638;2023-03-08T02:00:08;63.95;;;37.35;;
62673;SDS011;62269;47.594;17.638;2023-03-08T02:01:45;61.40;;;33.00;;
62673;SDS011;62269;47.594;17.638;2023-03-08T02:02:34;65.65;;;36.03;;
62673;SDS011;62269;47.594;17.638;2023-03-08T02:03:25;64.18;;;36.22;;
62673;SDS011;62269;47.594;17.638;2023-03-08T02:04:12;67.25;;;37.15;;
62673;SDS011;62269;47.594;17.638;2023-03-08T02:04:59;68.72;;;40.22;;
62673;SDS011;62269;47.594;17.638;2023-03-08T02:05:46;69.82;;;38.80;;
62673;SDS011;62269;47.594;17.638;2023-03-08T02:06:34;66.30;;;36.78;;
62673;SDS011;62269;47.594;17.638;2023-03-08T02:07:21;69.78;;;38.05;;
62673;SDS011;62269;47.594;17.638;2023-03-08T02:08:08;67.25;;;37.10;;
62673;SDS011;62269;47.594;17.638;2023-03-08T02:08:56;66.30;;;38.85;;
62673;SDS011;62269;47.594;17.638;2023-03-08T02:09:43;64.82;;;37.58;;
62673;SDS011;62269;47.594;17.638;2023-03-08T02:10:31;64.55;;;37.58;;
62673;SDS011;62269;47.594;17.638;2023-03-08T02:11:19;64.68;;;36.13;;
62673;SDS011;62269;47.594;17.638;2023-03-08T02:12:08;70.82;;;37.88;;
62673;SDS011;62269;47.594;17.638;2023-03-08T02:12:57;58.97;;;35.92;;
62673;SDS011;62269;47.594;17.638;2023-03-08T02:13:44;62.33;;;37.00;;
62673;SDS011;62269;47.594;17.638;2023-03-08T02:14:31;68.30;;;38.58;;
62673;SDS011;62269;47.594;17.638;2023-03-08T02:15:19;71.50;;;38.05;;
62673;SDS011;62269;47.594;17.638;2023-03-08T02:16:07;65.72;;;36.58;;
62673;SDS011;62269;47.594;17.638;2023-03-08T02:16:56;62.95;;;35.78;;
62673;SDS011;62269;47.594;17.638;2023-03-08T02:17:43;65.75;;;35.80;;
62673;SDS011;62269;47.594;17.638;2023-03-08T02:18:30;60.63;;;35.50;;
62673;SDS011;62269;47.594;17.638;2023-03-08T02:19:21;61.37;;;37.30;;
62673;SDS011;62269;47.594;17.638;2023-03-08T02:21:02;50.00;;;28.38;;
62673;SDS011;62269;47.594;17.638;2023-03-08T02:21:49;58.25;;;36.33;;
62673;SDS011;62269;47.594;17.638;2023-03-08T02:22:37;65.18;;;36.13;;
62673;SDS011;62269;47.594;17.638;2023-03-08T02:23:24;68.35;;;35.92;;
62673;SDS011;62269;47.594;17.638;2023-03-08T02:24:19;58.80;;;33.97;;
62673;SDS011;62269;47.594;17.638;2023-03-08T02:25:17;58.30;;;34.80;;
62673;SDS011;62269;47.594;17.638;2023-03-08T02:26:06;57.60;;;35.35;;
62673;SDS011;62269;47.594;17.638;2023-03-08T02:26:59;58.87;;;33.20;;
62673;SDS011;62269;47.594;17.638;2023-03-08T02:27:49;58.33;;;35.35;;
62673;SDS011;62269;47.594;17.638;2023-03-08T02:28:37;60.58;;;35.63;;
62673;SDS011;62269;47.594;17.638;2023-03-08T02:29:24;58.67;;;35.13;;
62673;SDS011;62269;47.594;17.638;2023-03-08T02:30:12;63.28;;;36.67;;
62673;SDS011;62269;47.594;17.638;2023-03-08T02:31:00;62.28;;;35.85;;
62673;SDS011;62269;47.594;17.638;2023-03-08T02:31:47;59.85;;;35.60;;
62673;SDS011;62269;47.594;17.638;2023-03-08T02:32:34;52.25;;;33.33;;
62673;SDS011;62269;47.594;17.638;2023-03-08T02:33:21;58.90;;;35.70;;
62673;SDS011;62269;47.594;17.638;2023-03-08T02:34:08;55.30;;;34.67;;
62673;SDS011;62269;47.594;17.638;2023-03-08T02:34:55;59.17;;;33.78;;
62673;SDS011;62269;47.594;17.638;2023-03-08T02:35:43;60.17;;;35.80;;
62673;SDS011;62269;47.594;17.638;2023-03-08T02:36:30;56.45;;;34.30;;
62673;SDS011;62269;47.594;17.638;2023-03-08T02:37:17;53.10;;;33.97;;
62673;SDS011;62269;47.594;17.638;2023-03-08T02:38:04;56.28;;;33.47;;
62673;SDS011;62269;47.594;17.638;2023-03-08T02:38:51;58.35;;;34.22;;
62673;SDS011;62269;47.594;17.638;2023-03-08T02:39:38;53.80;;;33.75;;
62673;SDS011;62269;47.594;17.638;2023-03-08T02:40:26;52.92;;;33.58;;
62673;SDS011;62269;47.594;17.638;2023-03-08T02:41:13;52.40;;;32.97;;
62673;SDS011;62269;47.594;17.638;2023-03-08T02:42:00;55.28;;;34.22;;
62673;SDS011;62269;47.594;17.638;2023-03-08T02:42:47;52.10;;;34.85;;
62673;SDS011;62269;47.594;17.638;2023-03-08T02:43:34;56.00;;;32.30;;
62673;SDS011;62269;47.594;17.638;2023-03-08T02:44:21;52.03;;;32.30;;
62673;SDS011;62269;47.594;17.638;2023-03-08T02:45:09;58.30;;;34.10;;
62673;SDS011;62269;47.594;17.638;2023-03-08T02:45:56;54.45;;;32.50;;
62673;SDS011;62269;47.594;17.638;2023-03-08T02:46:43;57.03;;;34.13;;
62673;SDS011;62269;47.594;17.638;2023-03-08T02:47:30;52.33;;;32.88;;
62673;SDS011;62269;47.594;17.638;2023-03-08T02:48:17;54.72;;;32.78;;
62673;SDS011;62269;47.594;17.638;2023-03-08T02:49:05;50.58;;;32.30;;
62673;SDS011;62269;47.594;17.638;2023-03-08T02:49:52;53.72;;;32.42;;
62673;SDS011;62269;47.594;17.638;2023-03-08T02:50:39;50.42;;;31.87;;
62673;SDS011;62269;47.594;17.638;2023-03-08T02:51:26;57.42;;;33.00;;
62673;SDS011;62269;47.594;17.638;2023-03-08T02:52:13;52.42;;;32.88;;
62673;SDS011;62269;47.594;17.638;2023-03-08T02:53:00;55.20;;;32.55;;
62673;SDS011;62269;47.594;17.638;2023-03-08T02:53:48;60.17;;;34.30;;
62673;SDS011;62269;47.594;17.638;2023-03-08T02:54:35;55.12;;;34.10;;
62673;SDS011;62269;47.594;17.638;2023-03-08T02:55:22;55.83;;;33.63;;
62673;SDS011;62269;47.594;17.638;2023-03-08T02:56:09;54.60;;;34.58;;
62673;SDS011;62269;47.594;17.638;2023-03-08T02:56:56;48.60;;;32.45;;
62673;SDS011;62269;47.594;17.638;2023-03-08T02:57:43;47.65;;;32.13;;
62673;SDS011;62269;47.594;17.638;2023-03-08T02:58:30;48.05;;;31.80;;
62673;SDS011;62269;47.594;17.638;2023-03-08T02:59:17;52.88;;;33.55;;
62673;SDS011;62269;47.594;17.638;2023-03-08T03:00:04;55.33;;;33.25;;
62673;SDS011;62269;47.594;17.638;2023-03-08T03:00:52;53.33;;;33.67;;
62673;SDS011;62269;47.594;17.638;2023-03-08T03:01:39;48.50;;;30.23;;
62673;SDS011;62269;47.594;17.638;2023-03-08T03:02:26;52.78;;;33.33;;
62673;SDS011;62269;47.594;17.638;2023-03-08T03:03:13;53.78;;;32.30;;
62673;SDS011;62269;47.594;17.638;2023-03-08T03:04:00;49.30;;;31.83;;
62673;SDS011;62269;47.594;17.638;2023-03-08T03:04:47;51.08;;;30.70;;
62673;SDS011;62269;47.594;17.638;2023-03-08T03:05:34;49.80;;;32.00;;
62673;SDS011;62269;47.594;17.638;2023-03-08T03:06:26;48.87;;;31.90;;
62673;SDS011;62269;47.594;17.638;2023-03-08T03:07:13;46.97;;;30.90;;
62673;SDS011;62269;47.594;17.638;2023-03-08T03:08:00;48.05;;;30.73;;
62673;SDS011;62269;47.594;17.638;2023-03-08T03:08:48;49.17;;;31.73;;
62673;SDS011;62269;47.594;17.638;2023-03-08T03:09:35;51.28;;;31.25;;
62673;SDS011;62269;47.594;17.638;2023-03-08T03:10:22;45.28;;;29.92;;
62673;SDS011;62269;47.594;17.638;2023-03-08T03:11:13;44.20;;;29.90;;
62673;SDS011;62269;47.594;17.638;2023-03-08T03:12:01;49.03;;;31.70;;
62673;SDS011;62269;47.594;17.638;2023-03-08T03:12:51;45.30;;;30.48;;
62673;SDS011;62269;47.594;17.638;2023-03-08T03:13:38;49.58;;;31.55;;
62673;SDS011;62269;47.594;17.638;2023-03-08T03:14:26;46.00;;;30.85;;
62673;SDS011;62269;47.594;17.638;2023-03-08T03:15:13;48.60;;;31.40;;
62673;SDS011;62269;47.594;17.638;2023-03-08T03:16:04;52.80;;;32.20;;
62673;SDS011;62269;47.594;17.638;2023-03-08T03:16:55;55.75;;;31.65;;
62673;SDS011;62269;47.594;17.638;2023-03-08T03:17:43;52.92;;;31.42;;
62673;SDS011;62269;47.594;17.638;2023-03-08T03:18:30;48.90;;;30.73;;
62673;SDS011;62269;47.594;17.638;2023-03-08T03:19:17;47.17;;;30.25;;
62673;SDS011;62269;47.594;17.638;2023-03-08T03:20:05;48.75;;;31.85;;
62673;SDS011;62269;47.594;17.638;2023-03-08T03:21:01;46.72;;;30.52;;
62673;SDS011;62269;47.594;17.638;2023-03-08T03:21:51;49.20;;;32.00;;
62673;SDS011;62269;47.594;17.638;2023-03-08T03:22:38;46.17;;;30.50;;
62673;SDS011;62269;47.594;17.638;2023-03-08T03:23:25;49.92;;;32.45;;
62673;SDS011;62269;47.594;17.638;2023-03-08T03:24:14;54.33;;;32.28;;
62673;SDS011;62269;47.594;17.638;2023-03-08T03:25:02;48.47;;;32.20;;
62673;SDS011;62269;47.594;17.638;2023-03-08T03:25:49;51.70;;;32.47;;
62673;SDS011;62269;47.594;17.638;2023-03-08T03:26:36;44.45;;;29.83;;
62673;SDS011;62269;47.594;17.638;2023-03-08T03:27:24;48.05;;;31.73;;
62673;SDS011;62269;47.594;17.638;2023-03-08T03:28:11;45.78;;;31.02;;
62673;SDS011;62269;47.594;17.638;2023-03-08T03:28:59;49.65;;;31.33;;
62673;SDS011;62269;47.594;17.638;2023-03-08T03:29:46;49.50;;;31.45;;
62673;SDS011;62269;47.594;17.638;2023-03-08T03:30:33;43.85;;;30.37;;
62673;SDS011;62269;47.594;17.638;2023-03-08T03:31:23;49.70;;;32.40;;
62673;SDS011;62269;47.594;17.638;2023-03-08T03:32:10;46.30;;;30.15;;
62673;SDS011;62269;47.594;17.638;2023-03-08T03:32:58;46.95;;;31.12;;
62673;SDS011;62269;47.594;17.638;2023-03-08T03:33:45;53.85;;;31.77;;
62673;SDS011;62269;47.594;17.638;2023-03-08T03:34:33;44.90;;;31.92;;
62673;SDS011;62269;47.594;17.638;2023-03-08T03:35:22;50.15;;;31.08;;
62673;SDS011;62269;47.594;17.638;2023-03-08T03:36:10;46.67;;;29.65;;
62673;SDS011;62269;47.594;17.638;2023-03-08T03:36:58;47.10;;;30.60;;
62673;SDS011;62269;47.594;17.638;2023-03-08T03:37:45;48.35;;;29.48;;
62673;SDS011;62269;47.594;17.638;2023-03-08T03:38:32;52.30;;;33.20;;
62673;SDS011;62269;47.594;17.638;2023-03-08T03:39:21;52.85;;;32.08;;
62673;SDS011;62269;47.594;17.638;2023-03-08T03:40:09;43.40;;;30.23;;
62673;SDS011;62269;47.594;17.638;2023-03-08T03:41:00;48.45;;;31.42;;
62673;SDS011;62269;47.594;17.638;2023-03-08T03:41:51;46.47;;;30.80;;
62673;SDS011;62269;47.594;17.638;2023-03-08T03:42:38;47.67;;;30.27;;
62673;SDS011;62269;47.594;17.638;2023-03-08T03:43:25;46.20;;;30.30;;
62673;SDS011;62269;47.594;17.638;2023-03-08T03:44:12;49.03;;;32.38;;
62673;SDS011;62269;47.594;17.638;2023-03-08T03:44:59;44.53;;;31.30;;
62673;SDS011;62269;47.594;17.638;2023-03-08T03:45:53;54.70;;;34.45;;
62673;SDS011;62269;47.594;17.638;2023-03-08T03:46:41;49.70;;;31.98;;
62673;SDS011;62269;47.594;17.638;2023-03-08T03:47:29;52.13;;;31.27;;
62673;SDS011;62269;47.594;17.638;2023-03-08T03:48:16;43.70;;;29.87;;
62673;SDS011;62269;47.594;17.638;2023-03-08T03:49:03;46.60;;;31.50;;
62673;SDS011;62269;47.594;17.638;2023-03-08T03:49:50;45.92;;;31.48;;
62673;SDS011;62269;47.594;17.638;2023-03-08T03:50:37;45.83;;;30.48;;
62673;SDS011;62269;47.594;17.638;2023-03-08T03:51:24;48.53;;;31.30;;
62673;SDS011;62269;47.594;17.638;2023-03-08T03:52:11;44.42;;;30.12;;
62673;SDS011;62269;47.594;17.638;2023-03-08T03:52:58;47.97;;;30.27;;
62673;SDS011;62269;47.594;17.638;2023-03-08T03:53:45;48.97;;;30.98;;
62673;SDS011;62269;47.594;17.638;2023-03-08T03:54:32;42.25;;;30.40;;
62673;SDS011;62269;47.594;17.638;2023-03-08T03:55:20;47.38;;;32.05;;
62673;SDS011;62269;47.594;17.638;2023-03-08T03:56:09;46.37;;;31.40;;
62673;SDS011;62269;47.594;17.638;2023-03-08T03:56:59;42.83;;;30.92;;
62673;SDS011;62269;47.594;17.638;2023-03-08T03:57:46;50.33;;;32.28;;
62673;SDS011;62269;47.594;17.638;2023-03-08T03:58:33;43.03;;;29.15;;
62673;SDS011;62269;47.594;17.638;2023-03-08T03:59:20;43.58;;;30.37;;
62673;SDS011;62269;47.594;17.638;2023-03-08T04:00:09;49.72;;;30.80;;
62673;SDS011;62269;47.594;17.638;2023-03-08T04:00:57;48.78;;;31.48;;
62673;SDS011;62269;47.594;17.638;2023-03-08T04:01:44;48.05;;;30.20;;
62673;SDS011;62269;47.594;17.638;2023-03-08T04:02:31;48.20;;;30.50;;
62673;SDS011;62269;47.594;17.638;2023-03-08T04:03:18;50.45;;;30.30;;
62673;SDS011;62269;47.594;17.638;2023-03-08T04:04:05;54.00;;;31.35;;
62673;SDS011;62269;47.594;17.638;2023-03-08T04:04:52;48.20;;;31.60;;
62673;SDS011;62269;47.594;17.638;2023-03-08T04:05:39;48.15;;;30.15;;
62673;SDS011;62269;47.594;17.638;2023-03-08T04:06:29;46.60;;;31.83;;
62673;SDS011;62269;47.594;17.638;2023-03-08T04:07:18;46.15;;;30.58;;
62673;SDS011;62269;47.594;17.638;2023-03-08T04:08:07;43.97;;;29.27;;
62673;SDS011;62269;47.594;17.638;2023-03-08T04:08:57;45.63;;;30.02;;
62673;SDS011;62269;47.594;17.638;2023-03-08T04:09:46;46.95;;;30.20;;
62673;SDS011;62269;47.594;17.638;2023-03-08T04:10:33;49.88;;;31.92;;
62673;SDS011;62269;47.594;17.638;2023-03-08T04:11:22;50.33;;;32.22;;
62673;SDS011;62269;47.594;17.638;2023-03-08T04:12:10;45.33;;;29.10;;
62673;SDS011;62269;47.594;17.638;2023-03-08T04:12:57;44.63;;;29.65;;
62673;SDS011;62269;47.594;17.638;2023-03-08T04:13:44;46.22;;;30.52;;
62673;SDS011;62269;47.594;17.638;2023-03-08T04:14:31;44.10;;;28.85;;
62673;SDS011;62269;47.594;17.638;2023-03-08T04:15:18;50.30;;;32.35;;
62673;SDS011;62269;47.594;17.638;2023-03-08T04:16:59;46.83;;;30.67;;
62673;SDS011;62269;47.594;17.638;2023-03-08T04:17:46;52.10;;;31.83;;
62673;SDS011;62269;47.594;17.638;2023-03-08T04:18:33;47.80;;;32.53;;
62673;SDS011;62269;47.594;17.638;2023-03-08T04:19:23;49.42;;;32.97;;
62673;SDS011;62269;47.594;17.638;2023-03-08T04:20:10;45.28;;;29.73;;
62673;SDS011;62269;47.594;17.638;2023-03-08T04:20:59;46.45;;;30.08;;
62673;SDS011;62269;47.594;17.638;2023-03-08T04:21:46;45.08;;;30.17;;
62673;SDS011;62269;47.594;17.638;2023-03-08T04:22:33;45.08;;;28.95;;
62673;SDS011;62269;47.594;17.638;2023-03-08T04:23:23;42.28;;;29.15;;
62673;SDS011;62269;47.594;17.638;2023-03-08T04:24:10;43.53;;;29.02;;
62673;SDS011;62269;47.594;17.638;2023-03-08T04:24:57;43.45;;;29.48;;
62673;SDS011;62269;47.594;17.638;2023-03-08T04:25:45;44.55;;;31.30;;
62673;SDS011;62269;47.594;17.638;2023-03-08T04:26:33;41.75;;;29.05;;
62673;SDS011;62269;47.594;17.638;2023-03-08T04:27:20;42.10;;;29.27;;
62673;SDS011;62269;47.594;17.638;2023-03-08T04:28:07;40.45;;;28.00;;
62673;SDS011;62269;47.594;17.638;2023-03-08T04:28:54;48.47;;;31.00;;
62673;SDS011;62269;47.594;17.638;2023-03-08T04:29:41;45.10;;;30.30;;
62673;SDS011;62269;47.594;17.638;2023-03-08T04:30:28;48.63;;;30.65;;
62673;SDS011;62269;47.594;17.638;2023-03-08T04:31:17;45.05;;;29.08;;
62673;SDS011;62269;47.594;17.638;2023-03-08T04:32:08;41.35;;;27.87;;
62673;SDS011;62269;47.594;17.638;2023-03-08T04:32:55;40.55;;;28.23;;
62673;SDS011;62269;47.594;17.638;2023-03-08T04:33:42;43.45;;;29.12;;
62673;SDS011;62269;47.594;17.638;2023-03-08T04:34:29;45.20;;;29.77;;
62673;SDS011;62269;47.594;17.638;2023-03-08T04:35:16;43.50;;;30.65;;
62673;SDS011;62269;47.594;17.638;2023-03-08T04:36:03;46.47;;;28.70;;
62673;SDS011;62269;47.594;17.638;2023-03-08T04:36:51;50.65;;;31.83;;
62673;SDS011;62269;47.594;17.638;2023-03-08T04:37:38;46.28;;;30.55;;
62673;SDS011;62269;47.594;17.638;2023-03-08T04:38:25;44.88;;;29.40;;
62673;SDS011;62269;47.594;17.638;2023-03-08T04:39:12;49.38;;;30.02;;
62673;SDS011;62269;47.594;17.638;2023-03-08T04:39:59;43.40;;;29.92;;
62673;SDS011;62269;47.594;17.638;2023-03-08T04:40:49;44.10;;;29.63;;
62673;SDS011;62269;47.594;17.638;2023-03-08T04:41:57;46.25;;;28.87;;
62673;SDS011;62269;47.594;17.638;2023-03-08T04:42:44;41.37;;;27.90;;
62673;SDS011;62269;47.594;17.638;2023-03-08T04:43:31;43.22;;;28.23;;
62673;SDS011;62269;47.594;17.638;2023-03-08T04:44:19;43.40;;;28.58;;
62673;SDS011;62269;47.594;17.638;2023-03-08T04:45:06;46.30;;;30.37;;
62673;SDS011;62269;47.594;17.638;2023-03-08T04:45:54;44.72;;;29.85;;
62673;SDS011;62269;47.594;17.638;2023-03-08T04:46:41;39.63;;;27.95;;
62673;SDS011;62269;47.594;17.638;2023-03-08T04:47:28;43.87;;;28.77;;
62673;SDS011;62269;47.594;17.638;2023-03-08T04:48:15;43.10;;;29.58;;
62673;SDS011;62269;47.594;17.638;2023-03-08T04:49:02;46.70;;;29.30;;
62673;SDS011;62269;47.594;17.638;2023-03-08T04:49:49;48.25;;;30.77;;
62673;SDS011;62269;47.594;17.638;2023-03-08T04:50:36;45.03;;;30.70;;
62673;SDS011;62269;47.594;17.638;2023-03-08T04:51:25;42.78;;;29.58;;
62673;SDS011;62269;47.594;17.638;2023-03-08T04:52:12;46.47;;;30.75;;
62673;SDS011;62269;47.594;17.638;2023-03-08T04:52:59;43.47;;;28.40;;
62673;SDS011;62269;47.594;17.638;2023-03-08T04:53:46;48.33;;;31.20;;
62673;SDS011;62269;47.594;17.638;2023-03-08T04:54:33;48.95;;;31.12;;
62673;SDS011;62269;47.594;17.638;2023-03-08T04:55:24;47.38;;;30.92;;
62673;SDS011;62269;47.594;17.638;2023-03-08T04:56:11;44.05;;;30.23;;
62673;SDS011;62269;47.594;17.638;2023-03-08T04:56:59;44.45;;;29.20;;
62673;SDS011;62269;47.594;17.638;2023-03-08T04:57:46;46.25;;;28.67;;
62673;SDS011;62269;47.594;17.638;2023-03-08T04:58:34;45.20;;;30.88;;
62673;SDS011;62269;47.594;17.638;2023-03-08T04:59:21;45.38;;;29.12;;
62673;SDS011;62269;47.594;17.638;2023-03-08T05:00:08;47.17;;;29.95;;
62673;SDS011;62269;47.594;17.638;2023-03-08T05:00:56;46.60;;;29.42;;
62673;SDS011;62269;47.594;17.638;2023-03-08T05:01:43;45.55;;;31.83;;
62673;SDS011;62269;47.594;17.638;2023-03-08T05:02:30;48.60;;;30.75;;
62673;SDS011;62269;47.594;17.638;2023-03-08T05:03:18;42.35;;;28.10;;